sensor_id;sensor_type;location;lat;lon;timestamp;temperature;humidity
32173;DHT22;18679;45.190;5.722;2022-11-20T00:01:37;12.00;59.00
32173;DHT22;18679;45.190;5.722;2022-11-20T00:04:37;12.00;59.00
32173;DHT22;18679;45.190;5.722;2022-11-20T00:07:38;12.00;59.00
32173;DHT22;18679;45.190;5.722;2022-11-20T00:10:40;12.00;59.00
32173;DHT22;18679;45.190;5.722;2022-11-20T00:13:41;12.00;58.90
32173;DHT22;18679;45.190;5.722;2022-11-20T00:16:42;12.00;58.90
32173;DHT22;18679;45.190;5.722;2022-11-20T00:19:43;11.90;58.90
32173;DHT22;18679;45.190;5.722;2022-11-20T00:22:44;11.90;59.00
32173;DHT22;18679;45.190;5.722;2022-11-20T00:25:45;11.80;59.10
32173;DHT22;18679;45.190;5.722;2022-11-20T00:28:52;11.80;59.20
32173;DHT22;18679;45.190;5.722;2022-11-20T00:31:53;11.80;59.30
32173;DHT22;18679;45.190;5.722;2022-11-20T00:34:54;11.80;59.30
32173;DHT22;18679;45.190;5.722;2022-11-20T00:37:55;11.80;59.30
32173;DHT22;18679;45.190;5.722;2022-11-20T00:40:57;11.80;59.30
32173;DHT22;18679;45.190;5.722;2022-11-20T00:43:58;11.80;59.30
32173;DHT22;18679;45.190;5.722;2022-11-20T00:46:59;11.80;59.30
32173;DHT22;18679;45.190;5.722;2022-11-20T00:50:00;11.80;59.40
32173;DHT22;18679;45.190;5.722;2022-11-20T00:53:01;11.70;59.40
32173;DHT22;18679;45.190;5.722;2022-11-20T00:56:04;11.70;59.50
32173;DHT22;18679;45.190;5.722;2022-11-20T00:59:05;11.70;59.60
32173;DHT22;18679;45.190;5.722;2022-11-20T01:02:06;11.70;59.60
32173;DHT22;18679;45.190;5.722;2022-11-20T01:05:07;11.70;59.70
32173;DHT22;18679;45.190;5.722;2022-11-20T01:08:08;11.70;59.70
32173;DHT22;18679;45.190;5.722;2022-11-20T01:11:12;11.60;59.80
32173;DHT22;18679;45.190;5.722;2022-11-20T01:14:16;11.60;59.90
32173;DHT22;18679;45.190;5.722;2022-11-20T01:17:17;11.60;59.90
32173;DHT22;18679;45.190;5.722;2022-11-20T01:20:17;11.60;60.00
32173;DHT22;18679;45.190;5.722;2022-11-20T01:23:18;11.60;59.90
32173;DHT22;18679;45.190;5.722;2022-11-20T01:26:22;11.70;59.90
32173;DHT22;18679;45.190;5.722;2022-11-20T01:29:24;11.70;59.90
32173;DHT22;18679;45.190;5.722;2022-11-20T01:32:25;11.70;59.70
32173;DHT22;18679;45.190;5.722;2022-11-20T01:35:26;11.70;59.60
32173;DHT22;18679;45.190;5.722;2022-11-20T01:38:26;11.80;59.50
32173;DHT22;18679;45.190;5.722;2022-11-20T01:41:29;11.80;59.40
32173;DHT22;18679;45.190;5.722;2022-11-20T01:44:59;11.80;59.30
32173;DHT22;18679;45.190;5.722;2022-11-20T01:48:00;11.80;59.20
32173;DHT22;18679;45.190;5.722;2022-11-20T01:51:02;11.80;59.20
32173;DHT22;18679;45.190;5.722;2022-11-20T01:54:07;11.80;59.20
32173;DHT22;18679;45.190;5.722;2022-11-20T01:57:12;11.80;59.20
32173;DHT22;18679;45.190;5.722;2022-11-20T02:00:16;11.80;59.20
32173;DHT22;18679;45.190;5.722;2022-11-20T02:03:19;11.80;59.20
32173;DHT22;18679;45.190;5.722;2022-11-20T02:06:26;11.70;59.20
32173;DHT22;18679;45.190;5.722;2022-11-20T02:09:28;11.70;59.30
32173;DHT22;18679;45.190;5.722;2022-11-20T02:12:29;11.80;59.30
32173;DHT22;18679;45.190;5.722;2022-11-20T02:15:48;11.70;59.20
32173;DHT22;18679;45.190;5.722;2022-11-20T02:18:50;11.70;59.30
32173;DHT22;18679;45.190;5.722;2022-11-20T02:24:52;11.60;59.40
32173;DHT22;18679;45.190;5.722;2022-11-20T02:27:53;11.60;59.40
32173;DHT22;18679;45.190;5.722;2022-11-20T02:30:53;11.60;59.40
32173;DHT22;18679;45.190;5.722;2022-11-20T02:33:58;11.60;59.40
32173;DHT22;18679;45.190;5.722;2022-11-20T02:36:59;11.60;59.40
32173;DHT22;18679;45.190;5.722;2022-11-20T02:40:00;11.60;59.30
32173;DHT22;18679;45.190;5.722;2022-11-20T02:43:01;11.60;59.30
32173;DHT22;18679;45.190;5.722;2022-11-20T02:46:02;11.50;59.10
32173;DHT22;18679;45.190;5.722;2022-11-20T02:49:04;11.50;59.00
32173;DHT22;18679;45.190;5.722;2022-11-20T02:52:04;11.50;59.00
32173;DHT22;18679;45.190;5.722;2022-11-20T02:55:06;11.40;58.90
32173;DHT22;18679;45.190;5.722;2022-11-20T02:58:07;11.30;59.00
32173;DHT22;18679;45.190;5.722;2022-11-20T03:01:08;11.20;59.00
32173;DHT22;18679;45.190;5.722;2022-11-20T03:04:08;11.20;59.10
32173;DHT22;18679;45.190;5.722;2022-11-20T03:07:09;11.10;59.10
32173;DHT22;18679;45.190;5.722;2022-11-20T03:10:10;11.10;59.20
32173;DHT22;18679;45.190;5.722;2022-11-20T03:13:11;11.00;59.10
32173;DHT22;18679;45.190;5.722;2022-11-20T03:16:17;11.00;59.20
32173;DHT22;18679;45.190;5.722;2022-11-20T03:19:19;11.00;59.30
32173;DHT22;18679;45.190;5.722;2022-11-20T03:22:20;11.00;59.40
32173;DHT22;18679;45.190;5.722;2022-11-20T03:25:21;10.90;59.40
32173;DHT22;18679;45.190;5.722;2022-11-20T03:28:22;10.90;59.40
32173;DHT22;18679;45.190;5.722;2022-11-20T03:31:32;10.90;59.40
32173;DHT22;18679;45.190;5.722;2022-11-20T03:34:33;10.90;59.40
32173;DHT22;18679;45.190;5.722;2022-11-20T03:37:34;10.90;59.50
32173;DHT22;18679;45.190;5.722;2022-11-20T03:40:34;11.00;59.70
32173;DHT22;18679;45.190;5.722;2022-11-20T03:43:36;11.00;59.90
32173;DHT22;18679;45.190;5.722;2022-11-20T03:46:37;11.00;59.90
32173;DHT22;18679;45.190;5.722;2022-11-20T03:49:38;11.00;59.90
32173;DHT22;18679;45.190;5.722;2022-11-20T03:52:39;11.00;59.80
32173;DHT22;18679;45.190;5.722;2022-11-20T03:55:40;11.10;59.80
32173;DHT22;18679;45.190;5.722;2022-11-20T03:58:41;11.10;59.70
32173;DHT22;18679;45.190;5.722;2022-11-20T04:01:42;11.10;59.60
32173;DHT22;18679;45.190;5.722;2022-11-20T04:04:43;11.00;59.60
32173;DHT22;18679;45.190;5.722;2022-11-20T04:07:44;11.00;59.50
32173;DHT22;18679;45.190;5.722;2022-11-20T04:10:45;11.00;59.50
32173;DHT22;18679;45.190;5.722;2022-11-20T04:13:52;11.00;59.50
32173;DHT22;18679;45.190;5.722;2022-11-20T04:16:53;11.00;59.40
32173;DHT22;18679;45.190;5.722;2022-11-20T04:19:54;11.00;59.40
32173;DHT22;18679;45.190;5.722;2022-11-20T04:22:55;11.00;59.40
32173;DHT22;18679;45.190;5.722;2022-11-20T04:26:04;11.00;59.40
32173;DHT22;18679;45.190;5.722;2022-11-20T04:29:05;10.90;59.20
32173;DHT22;18679;45.190;5.722;2022-11-20T04:32:06;10.90;59.20
32173;DHT22;18679;45.190;5.722;2022-11-20T04:35:07;10.80;59.30
32173;DHT22;18679;45.190;5.722;2022-11-20T04:38:08;10.80;59.50
32173;DHT22;18679;45.190;5.722;2022-11-20T04:41:16;10.80;59.50
32173;DHT22;18679;45.190;5.722;2022-11-20T04:44:17;10.70;59.50
32173;DHT22;18679;45.190;5.722;2022-11-20T04:47:18;10.80;59.50
32173;DHT22;18679;45.190;5.722;2022-11-20T04:50:19;10.80;59.50
32173;DHT22;18679;45.190;5.722;2022-11-20T04:53:21;10.80;60.20
32173;DHT22;18679;45.190;5.722;2022-11-20T04:56:22;10.80;59.50
32173;DHT22;18679;45.190;5.722;2022-11-20T04:59:23;10.90;59.40
32173;DHT22;18679;45.190;5.722;2022-11-20T05:02:24;10.90;59.40
32173;DHT22;18679;45.190;5.722;2022-11-20T05:05:25;10.90;59.40
32173;DHT22;18679;45.190;5.722;2022-11-20T05:08:26;10.90;59.40
32173;DHT22;18679;45.190;5.722;2022-11-20T05:11:27;10.90;59.30
32173;DHT22;18679;45.190;5.722;2022-11-20T05:14:29;10.90;59.30
32173;DHT22;18679;45.190;5.722;2022-11-20T05:17:30;10.90;59.20
32173;DHT22;18679;45.190;5.722;2022-11-20T05:20:31;11.00;59.20
32173;DHT22;18679;45.190;5.722;2022-11-20T05:23:33;11.00;59.20
32173;DHT22;18679;45.190;5.722;2022-11-20T05:26:34;11.00;59.20
32173;DHT22;18679;45.190;5.722;2022-11-20T05:29:35;11.00;59.20
32173;DHT22;18679;45.190;5.722;2022-11-20T05:32:35;11.00;59.20
32173;DHT22;18679;45.190;5.722;2022-11-20T05:35:36;11.00;59.10
32173;DHT22;18679;45.190;5.722;2022-11-20T05:38:37;11.00;59.10
32173;DHT22;18679;45.190;5.722;2022-11-20T05:41:38;11.00;59.10
32173;DHT22;18679;45.190;5.722;2022-11-20T05:44:39;11.00;59.20
32173;DHT22;18679;45.190;5.722;2022-11-20T05:47:40;11.00;59.30
32173;DHT22;18679;45.190;5.722;2022-11-20T05:50:41;11.00;59.30
32173;DHT22;18679;45.190;5.722;2022-11-20T05:53:42;11.00;59.30
32173;DHT22;18679;45.190;5.722;2022-11-20T05:56:43;11.00;59.30
32173;DHT22;18679;45.190;5.722;2022-11-20T05:59:44;11.00;59.30
32173;DHT22;18679;45.190;5.722;2022-11-20T06:02:45;10.90;59.20
32173;DHT22;18679;45.190;5.722;2022-11-20T06:05:46;10.90;59.30
32173;DHT22;18679;45.190;5.722;2022-11-20T06:08:47;10.90;59.40
32173;DHT22;18679;45.190;5.722;2022-11-20T06:11:48;10.90;59.30
32173;DHT22;18679;45.190;5.722;2022-11-20T06:14:48;10.90;59.40
32173;DHT22;18679;45.190;5.722;2022-11-20T06:17:52;10.90;59.40
32173;DHT22;18679;45.190;5.722;2022-11-20T06:21:11;10.90;59.40
32173;DHT22;18679;45.190;5.722;2022-11-20T06:24:12;10.90;59.40
32173;DHT22;18679;45.190;5.722;2022-11-20T06:27:13;10.90;59.40
32173;DHT22;18679;45.190;5.722;2022-11-20T06:30:14;10.80;59.40
32173;DHT22;18679;45.190;5.722;2022-11-20T06:33:15;10.80;59.50
32173;DHT22;18679;45.190;5.722;2022-11-20T06:36:17;10.70;59.50
32173;DHT22;18679;45.190;5.722;2022-11-20T06:39:18;10.70;59.60
32173;DHT22;18679;45.190;5.722;2022-11-20T06:42:19;10.70;59.60
32173;DHT22;18679;45.190;5.722;2022-11-20T06:45:21;10.70;59.70
32173;DHT22;18679;45.190;5.722;2022-11-20T06:48:23;10.70;59.70
32173;DHT22;18679;45.190;5.722;2022-11-20T06:51:25;10.70;59.70
32173;DHT22;18679;45.190;5.722;2022-11-20T06:54:26;10.70;59.70
32173;DHT22;18679;45.190;5.722;2022-11-20T06:57:26;10.70;59.70
32173;DHT22;18679;45.190;5.722;2022-11-20T07:00:27;10.70;59.70
32173;DHT22;18679;45.190;5.722;2022-11-20T07:03:28;10.70;59.70
32173;DHT22;18679;45.190;5.722;2022-11-20T07:06:29;10.70;59.70
32173;DHT22;18679;45.190;5.722;2022-11-20T07:09:30;10.60;59.70
32173;DHT22;18679;45.190;5.722;2022-11-20T07:12:31;10.70;59.80
32173;DHT22;18679;45.190;5.722;2022-11-20T07:15:32;10.60;59.70
32173;DHT22;18679;45.190;5.722;2022-11-20T07:18:33;10.70;59.80
32173;DHT22;18679;45.190;5.722;2022-11-20T07:21:34;10.70;59.80
32173;DHT22;18679;45.190;5.722;2022-11-20T07:24:35;10.60;59.70
32173;DHT22;18679;45.190;5.722;2022-11-20T07:27:36;10.70;59.90
32173;DHT22;18679;45.190;5.722;2022-11-20T07:30:37;10.60;59.80
32173;DHT22;18679;45.190;5.722;2022-11-20T07:33:38;10.70;59.90
32173;DHT22;18679;45.190;5.722;2022-11-20T07:36:39;10.70;59.80
32173;DHT22;18679;45.190;5.722;2022-11-20T07:39:40;10.70;59.80
32173;DHT22;18679;45.190;5.722;2022-11-20T07:42:51;10.70;60.60
32173;DHT22;18679;45.190;5.722;2022-11-20T07:45:55;10.80;59.80
32173;DHT22;18679;45.190;5.722;2022-11-20T07:48:56;10.80;59.80
32173;DHT22;18679;45.190;5.722;2022-11-20T07:51:57;10.80;59.80
32173;DHT22;18679;45.190;5.722;2022-11-20T07:54:58;10.90;59.80
32173;DHT22;18679;45.190;5.722;2022-11-20T07:57:59;10.90;59.80
32173;DHT22;18679;45.190;5.722;2022-11-20T08:01:04;10.90;59.80
32173;DHT22;18679;45.190;5.722;2022-11-20T08:04:06;11.00;59.70
32173;DHT22;18679;45.190;5.722;2022-11-20T08:07:07;11.00;59.70
32173;DHT22;18679;45.190;5.722;2022-11-20T08:10:12;11.10;59.60
32173;DHT22;18679;45.190;5.722;2022-11-20T08:13:13;11.20;59.60
32173;DHT22;18679;45.190;5.722;2022-11-20T08:16:33;11.30;59.50
32173;DHT22;18679;45.190;5.722;2022-11-20T08:19:33;11.30;59.30
32173;DHT22;18679;45.190;5.722;2022-11-20T08:22:34;11.40;59.20
32173;DHT22;18679;45.190;5.722;2022-11-20T08:25:37;11.40;59.10
32173;DHT22;18679;45.190;5.722;2022-11-20T08:28:38;11.50;58.90
32173;DHT22;18679;45.190;5.722;2022-11-20T08:31:39;11.50;58.90
32173;DHT22;18679;45.190;5.722;2022-11-20T08:34:39;11.50;58.80
32173;DHT22;18679;45.190;5.722;2022-11-20T08:37:40;11.60;58.70
32173;DHT22;18679;45.190;5.722;2022-11-20T08:40:42;11.60;58.70
32173;DHT22;18679;45.190;5.722;2022-11-20T08:44:04;11.70;58.70
32173;DHT22;18679;45.190;5.722;2022-11-20T08:47:05;11.80;58.70
32173;DHT22;18679;45.190;5.722;2022-11-20T08:50:06;11.90;58.40
32173;DHT22;18679;45.190;5.722;2022-11-20T08:53:08;11.90;58.20
32173;DHT22;18679;45.190;5.722;2022-11-20T08:56:09;12.00;57.90
32173;DHT22;18679;45.190;5.722;2022-11-20T08:59:13;12.00;57.90
32173;DHT22;18679;45.190;5.722;2022-11-20T09:02:14;12.10;57.90
32173;DHT22;18679;45.190;5.722;2022-11-20T09:05:15;12.20;57.80
32173;DHT22;18679;45.190;5.722;2022-11-20T09:08:16;12.20;57.60
32173;DHT22;18679;45.190;5.722;2022-11-20T09:11:17;12.20;57.50
32173;DHT22;18679;45.190;5.722;2022-11-20T09:14:18;12.30;57.60
32173;DHT22;18679;45.190;5.722;2022-11-20T09:17:19;12.30;57.40
32173;DHT22;18679;45.190;5.722;2022-11-20T09:20:21;12.40;57.50
32173;DHT22;18679;45.190;5.722;2022-11-20T09:23:22;12.40;57.30
32173;DHT22;18679;45.190;5.722;2022-11-20T09:26:23;12.50;57.30
32173;DHT22;18679;45.190;5.722;2022-11-20T09:29:23;12.60;57.30
32173;DHT22;18679;45.190;5.722;2022-11-20T09:32:24;12.70;57.20
32173;DHT22;18679;45.190;5.722;2022-11-20T09:35:25;12.70;57.20
32173;DHT22;18679;45.190;5.722;2022-11-20T09:38:26;12.80;57.10
32173;DHT22;18679;45.190;5.722;2022-11-20T09:51:51;13.20;56.30
32173;DHT22;18679;45.190;5.722;2022-11-20T09:54:54;13.50;55.70
32173;DHT22;18679;45.190;5.722;2022-11-20T09:57:57;13.80;55.10
32173;DHT22;18679;45.190;5.722;2022-11-20T10:01:10;13.90;54.40
32173;DHT22;18679;45.190;5.722;2022-11-20T10:04:16;13.80;53.90
32173;DHT22;18679;45.190;5.722;2022-11-20T10:18:37;13.60;53.90
32173;DHT22;18679;45.190;5.722;2022-11-20T10:24:56;13.70;53.80
32173;DHT22;18679;45.190;5.722;2022-11-20T10:31:39;14.00;52.70
32173;DHT22;18679;45.190;5.722;2022-11-20T10:34:50;14.10;52.40
32173;DHT22;18679;45.190;5.722;2022-11-20T10:37:59;14.40;51.90
32173;DHT22;18679;45.190;5.722;2022-11-20T10:41:02;14.50;51.40
32173;DHT22;18679;45.190;5.722;2022-11-20T10:44:27;14.60;51.20
32173;DHT22;18679;45.190;5.722;2022-11-20T10:47:46;14.70;51.10
32173;DHT22;18679;45.190;5.722;2022-11-20T10:54:50;14.70;50.60
32173;DHT22;18679;45.190;5.722;2022-11-20T11:01:29;14.50;50.40
32173;DHT22;18679;45.190;5.722;2022-11-20T11:04:37;14.50;50.40
32173;DHT22;18679;45.190;5.722;2022-11-20T11:07:40;14.50;50.40
32173;DHT22;18679;45.190;5.722;2022-11-20T11:10:53;14.50;50.30
32173;DHT22;18679;45.190;5.722;2022-11-20T11:14:12;14.80;50.20
32173;DHT22;18679;45.190;5.722;2022-11-20T11:17:45;15.10;49.50
32173;DHT22;18679;45.190;5.722;2022-11-20T11:20:50;15.30;49.10
32173;DHT22;18679;45.190;5.722;2022-11-20T11:24:03;15.40;48.70
32173;DHT22;18679;45.190;5.722;2022-11-20T11:27:12;15.40;48.50
32173;DHT22;18679;45.190;5.722;2022-11-20T11:30:16;15.40;48.40
32173;DHT22;18679;45.190;5.722;2022-11-20T11:33:25;15.40;48.40
32173;DHT22;18679;45.190;5.722;2022-11-20T11:36:27;15.50;48.20
32173;DHT22;18679;45.190;5.722;2022-11-20T11:39:29;16.00;47.50
32173;DHT22;18679;45.190;5.722;2022-11-20T11:42:31;16.50;46.80
32173;DHT22;18679;45.190;5.722;2022-11-20T11:45:32;16.70;45.80
32173;DHT22;18679;45.190;5.722;2022-11-20T11:48:33;16.60;45.50
32173;DHT22;18679;45.190;5.722;2022-11-20T11:55:07;16.20;45.80
32173;DHT22;18679;45.190;5.722;2022-11-20T11:58:20;16.10;46.00
32173;DHT22;18679;45.190;5.722;2022-11-20T12:04:48;15.90;46.20
32173;DHT22;18679;45.190;5.722;2022-11-20T12:08:15;15.90;46.30
32173;DHT22;18679;45.190;5.722;2022-11-20T12:14:36;16.00;46.10
32173;DHT22;18679;45.190;5.722;2022-11-20T12:17:37;15.90;45.70
32173;DHT22;18679;45.190;5.722;2022-11-20T12:20:44;15.90;45.60
32173;DHT22;18679;45.190;5.722;2022-11-20T12:30:19;16.00;45.50
32173;DHT22;18679;45.190;5.722;2022-11-20T12:33:40;15.90;45.30
32173;DHT22;18679;45.190;5.722;2022-11-20T12:36:44;15.90;45.50
32173;DHT22;18679;45.190;5.722;2022-11-20T12:39:50;15.80;45.70
32173;DHT22;18679;45.190;5.722;2022-11-20T12:43:24;15.60;45.70
32173;DHT22;18679;45.190;5.722;2022-11-20T12:46:47;15.60;45.90
32173;DHT22;18679;45.190;5.722;2022-11-20T12:50:00;15.50;45.70
32173;DHT22;18679;45.190;5.722;2022-11-20T12:53:16;15.40;45.60
32173;DHT22;18679;45.190;5.722;2022-11-20T12:56:40;15.30;45.60
32173;DHT22;18679;45.190;5.722;2022-11-20T13:06:14;15.10;45.40
32173;DHT22;18679;45.190;5.722;2022-11-20T13:09:19;15.10;45.30
32173;DHT22;18679;45.190;5.722;2022-11-20T13:12:40;15.00;45.40
32173;DHT22;18679;45.190;5.722;2022-11-20T13:15:54;15.00;45.40
32173;DHT22;18679;45.190;5.722;2022-11-20T13:18:56;15.00;45.40
32173;DHT22;18679;45.190;5.722;2022-11-20T13:22:02;15.00;45.50
32173;DHT22;18679;45.190;5.722;2022-11-20T13:25:03;15.00;45.30
32173;DHT22;18679;45.190;5.722;2022-11-20T13:31:34;15.00;44.90
32173;DHT22;18679;45.190;5.722;2022-11-20T13:34:36;14.90;44.90
32173;DHT22;18679;45.190;5.722;2022-11-20T13:37:37;14.90;45.00
32173;DHT22;18679;45.190;5.722;2022-11-20T13:40:59;14.90;44.80
32173;DHT22;18679;45.190;5.722;2022-11-20T13:47:33;14.80;44.60
32173;DHT22;18679;45.190;5.722;2022-11-20T14:00:11;14.80;43.80
32173;DHT22;18679;45.190;5.722;2022-11-20T14:03:21;14.70;43.70
32173;DHT22;18679;45.190;5.722;2022-11-20T14:06:34;14.70;43.60
32173;DHT22;18679;45.190;5.722;2022-11-20T14:09:39;14.80;44.00
32173;DHT22;18679;45.190;5.722;2022-11-20T14:12:49;14.80;44.20
32173;DHT22;18679;45.190;5.722;2022-11-20T14:15:57;14.90;44.50
32173;DHT22;18679;45.190;5.722;2022-11-20T14:22:24;14.80;44.90
32173;DHT22;18679;45.190;5.722;2022-11-20T14:25:26;14.80;45.10
32173;DHT22;18679;45.190;5.722;2022-11-20T14:28:31;14.80;45.10
32173;DHT22;18679;45.190;5.722;2022-11-20T14:31:34;14.80;45.10
32173;DHT22;18679;45.190;5.722;2022-11-20T14:34:40;14.70;45.10
32173;DHT22;18679;45.190;5.722;2022-11-20T14:37:43;14.70;45.10
32173;DHT22;18679;45.190;5.722;2022-11-20T14:40:44;14.70;45.10
32173;DHT22;18679;45.190;5.722;2022-11-20T14:43:46;14.70;45.10
32173;DHT22;18679;45.190;5.722;2022-11-20T14:46:48;14.60;45.10
32173;DHT22;18679;45.190;5.722;2022-11-20T14:49:50;14.60;45.10
32173;DHT22;18679;45.190;5.722;2022-11-20T14:52:54;14.60;45.30
32173;DHT22;18679;45.190;5.722;2022-11-20T14:55:57;14.50;45.30
32173;DHT22;18679;45.190;5.722;2022-11-20T14:58:59;14.40;45.40
32173;DHT22;18679;45.190;5.722;2022-11-20T15:02:11;14.40;45.50
32173;DHT22;18679;45.190;5.722;2022-11-20T15:05:13;14.40;45.70
32173;DHT22;18679;45.190;5.722;2022-11-20T15:08:15;14.30;45.80
32173;DHT22;18679;45.190;5.722;2022-11-20T15:11:18;14.30;45.90
32173;DHT22;18679;45.190;5.722;2022-11-20T15:14:20;14.30;46.10
32173;DHT22;18679;45.190;5.722;2022-11-20T15:17:21;14.20;46.10
32173;DHT22;18679;45.190;5.722;2022-11-20T15:20:25;14.20;46.20
32173;DHT22;18679;45.190;5.722;2022-11-20T15:23:28;14.20;46.40
32173;DHT22;18679;45.190;5.722;2022-11-20T15:26:29;14.20;46.50
32173;DHT22;18679;45.190;5.722;2022-11-20T15:29:32;14.10;46.60
32173;DHT22;18679;45.190;5.722;2022-11-20T15:32:33;14.10;46.80
32173;DHT22;18679;45.190;5.722;2022-11-20T15:35:33;14.10;46.90
32173;DHT22;18679;45.190;5.722;2022-11-20T15:38:35;14.00;46.90
32173;DHT22;18679;45.190;5.722;2022-11-20T15:41:36;14.00;47.00
32173;DHT22;18679;45.190;5.722;2022-11-20T15:44:37;14.00;47.00
32173;DHT22;18679;45.190;5.722;2022-11-20T15:47:38;14.00;47.10
32173;DHT22;18679;45.190;5.722;2022-11-20T15:50:55;14.00;47.20
32173;DHT22;18679;45.190;5.722;2022-11-20T15:53:57;14.00;47.20
32173;DHT22;18679;45.190;5.722;2022-11-20T15:56:58;14.00;47.20
32173;DHT22;18679;45.190;5.722;2022-11-20T16:00:01;14.00;47.30
32173;DHT22;18679;45.190;5.722;2022-11-20T16:03:12;13.90;47.40
32173;DHT22;18679;45.190;5.722;2022-11-20T16:06:13;13.90;47.60
32173;DHT22;18679;45.190;5.722;2022-11-20T16:09:16;13.90;47.80
32173;DHT22;18679;45.190;5.722;2022-11-20T16:12:17;13.80;47.90
32173;DHT22;18679;45.190;5.722;2022-11-20T16:15:38;13.80;48.00
32173;DHT22;18679;45.190;5.722;2022-11-20T16:18:48;13.80;48.10
32173;DHT22;18679;45.190;5.722;2022-11-20T16:21:49;13.70;48.30
32173;DHT22;18679;45.190;5.722;2022-11-20T16:24:51;13.70;48.50
32173;DHT22;18679;45.190;5.722;2022-11-20T16:27:52;13.60;48.80
32173;DHT22;18679;45.190;5.722;2022-11-20T16:30:53;13.50;49.10
32173;DHT22;18679;45.190;5.722;2022-11-20T16:33:59;13.50;49.30
32173;DHT22;18679;45.190;5.722;2022-11-20T16:37:00;13.40;49.40
32173;DHT22;18679;45.190;5.722;2022-11-20T16:40:01;13.50;49.50
32173;DHT22;18679;45.190;5.722;2022-11-20T16:43:10;13.50;49.50
32173;DHT22;18679;45.190;5.722;2022-11-20T16:46:11;13.50;49.40
32173;DHT22;18679;45.190;5.722;2022-11-20T16:49:13;13.50;49.60
32173;DHT22;18679;45.190;5.722;2022-11-20T16:52:14;13.40;49.80
32173;DHT22;18679;45.190;5.722;2022-11-20T16:55:15;13.40;49.80
32173;DHT22;18679;45.190;5.722;2022-11-20T16:58:15;13.40;49.90
32173;DHT22;18679;45.190;5.722;2022-11-20T17:01:18;13.40;50.00
32173;DHT22;18679;45.190;5.722;2022-11-20T17:04:21;13.50;50.10
32173;DHT22;18679;45.190;5.722;2022-11-20T17:07:21;13.50;50.10
32173;DHT22;18679;45.190;5.722;2022-11-20T17:10:23;13.60;50.10
32173;DHT22;18679;45.190;5.722;2022-11-20T17:13:23;13.60;50.10
32173;DHT22;18679;45.190;5.722;2022-11-20T17:16:24;13.60;50.10
32173;DHT22;18679;45.190;5.722;2022-11-20T17:19:25;13.60;50.10
32173;DHT22;18679;45.190;5.722;2022-11-20T17:22:26;13.60;50.10
32173;DHT22;18679;45.190;5.722;2022-11-20T17:25:27;13.60;50.10
32173;DHT22;18679;45.190;5.722;2022-11-20T17:28:28;13.70;50.20
32173;DHT22;18679;45.190;5.722;2022-11-20T17:31:30;13.70;50.10
32173;DHT22;18679;45.190;5.722;2022-11-20T17:34:32;13.70;50.10
32173;DHT22;18679;45.190;5.722;2022-11-20T17:37:33;13.70;50.00
32173;DHT22;18679;45.190;5.722;2022-11-20T17:40:33;13.70;50.00
32173;DHT22;18679;45.190;5.722;2022-11-20T17:43:35;13.70;50.00
32173;DHT22;18679;45.190;5.722;2022-11-20T17:46:37;13.80;50.10
32173;DHT22;18679;45.190;5.722;2022-11-20T17:49:38;13.80;50.00
32173;DHT22;18679;45.190;5.722;2022-11-20T17:52:39;13.80;50.00
32173;DHT22;18679;45.190;5.722;2022-11-20T17:55:41;13.80;50.20
32173;DHT22;18679;45.190;5.722;2022-11-20T17:59:03;13.80;50.30
32173;DHT22;18679;45.190;5.722;2022-11-20T18:02:05;13.90;50.40
32173;DHT22;18679;45.190;5.722;2022-11-20T18:05:06;13.80;50.50
32173;DHT22;18679;45.190;5.722;2022-11-20T18:08:07;13.80;50.70
32173;DHT22;18679;45.190;5.722;2022-11-20T18:11:16;13.70;50.70
32173;DHT22;18679;45.190;5.722;2022-11-20T18:14:17;13.70;50.80
32173;DHT22;18679;45.190;5.722;2022-11-20T18:17:34;13.60;50.70
32173;DHT22;18679;45.190;5.722;2022-11-20T18:20:36;13.50;50.50
32173;DHT22;18679;45.190;5.722;2022-11-20T18:23:37;13.50;50.40
32173;DHT22;18679;45.190;5.722;2022-11-20T18:26:38;13.50;50.30
32173;DHT22;18679;45.190;5.722;2022-11-20T18:29:38;13.50;50.20
32173;DHT22;18679;45.190;5.722;2022-11-20T18:32:39;13.50;50.00
32173;DHT22;18679;45.190;5.722;2022-11-20T18:35:43;13.50;50.00
32173;DHT22;18679;45.190;5.722;2022-11-20T18:38:46;13.50;50.00
32173;DHT22;18679;45.190;5.722;2022-11-20T18:41:47;13.40;50.00
32173;DHT22;18679;45.190;5.722;2022-11-20T18:45:07;13.40;50.20
32173;DHT22;18679;45.190;5.722;2022-11-20T18:48:07;13.30;50.30
32173;DHT22;18679;45.190;5.722;2022-11-20T18:51:08;13.30;50.50
32173;DHT22;18679;45.190;5.722;2022-11-20T18:54:12;13.20;50.70
32173;DHT22;18679;45.190;5.722;2022-11-20T18:57:14;13.30;50.80
32173;DHT22;18679;45.190;5.722;2022-11-20T19:00:15;13.20;51.10
32173;DHT22;18679;45.190;5.722;2022-11-20T19:03:17;13.20;51.10
32173;DHT22;18679;45.190;5.722;2022-11-20T19:06:18;13.20;51.00
32173;DHT22;18679;45.190;5.722;2022-11-20T19:09:19;13.30;50.70
32173;DHT22;18679;45.190;5.722;2022-11-20T19:12:20;13.30;50.60
32173;DHT22;18679;45.190;5.722;2022-11-20T19:15:21;13.30;50.50
32173;DHT22;18679;45.190;5.722;2022-11-20T19:18:22;13.40;50.50
32173;DHT22;18679;45.190;5.722;2022-11-20T19:21:23;13.40;50.50
32173;DHT22;18679;45.190;5.722;2022-11-20T19:24:24;13.30;50.60
32173;DHT22;18679;45.190;5.722;2022-11-20T19:27:27;13.30;50.90
32173;DHT22;18679;45.190;5.722;2022-11-20T19:30:28;13.30;51.00
32173;DHT22;18679;45.190;5.722;2022-11-20T19:33:29;13.30;51.10
32173;DHT22;18679;45.190;5.722;2022-11-20T19:36:36;13.30;51.30
32173;DHT22;18679;45.190;5.722;2022-11-20T19:39:37;13.30;51.60
32173;DHT22;18679;45.190;5.722;2022-11-20T19:42:38;13.40;51.70
32173;DHT22;18679;45.190;5.722;2022-11-20T19:45:39;13.30;51.80
32173;DHT22;18679;45.190;5.722;2022-11-20T19:48:40;13.30;52.00
32173;DHT22;18679;45.190;5.722;2022-11-20T19:51:46;13.30;52.10
32173;DHT22;18679;45.190;5.722;2022-11-20T19:54:47;13.30;52.30
32173;DHT22;18679;45.190;5.722;2022-11-20T19:57:48;13.30;52.20
32173;DHT22;18679;45.190;5.722;2022-11-20T20:00:49;13.30;52.10
32173;DHT22;18679;45.190;5.722;2022-11-20T20:03:51;13.30;52.20
32173;DHT22;18679;45.190;5.722;2022-11-20T20:06:52;13.30;52.50
32173;DHT22;18679;45.190;5.722;2022-11-20T20:09:53;13.30;52.70
32173;DHT22;18679;45.190;5.722;2022-11-20T20:12:54;13.30;53.20
32173;DHT22;18679;45.190;5.722;2022-11-20T20:15:55;13.30;53.30
32173;DHT22;18679;45.190;5.722;2022-11-20T20:18:57;13.30;53.50
32173;DHT22;18679;45.190;5.722;2022-11-20T20:21:58;13.30;53.60
32173;DHT22;18679;45.190;5.722;2022-11-20T20:25:01;13.30;53.70
32173;DHT22;18679;45.190;5.722;2022-11-20T20:28:03;13.30;53.70
32173;DHT22;18679;45.190;5.722;2022-11-20T20:31:08;13.30;53.70
32173;DHT22;18679;45.190;5.722;2022-11-20T20:34:09;13.30;53.80
32173;DHT22;18679;45.190;5.722;2022-11-20T20:37:10;13.30;53.60
32173;DHT22;18679;45.190;5.722;2022-11-20T20:40:11;13.30;53.80